createdAt,value
2023-03-07T00:02:05.273Z,99187.88
2023-03-07T00:04:32.070Z,99295.88
2023-03-07T00:07:01.237Z,99108.38
2023-03-07T00:09:30.355Z,99192.19
2023-03-07T00:11:57.457Z,99208.28
2023-03-07T00:14:24.203Z,99210.38
2023-03-07T00:16:52.103Z,99294.78
2023-03-07T00:19:21.377Z,99324.34
2023-03-07T00:21:48.501Z,99285.59
2023-03-07T00:24:15.352Z,99132.97
2023-03-07T00:26:44.565Z,99183.66
2023-03-07T00:29:11.445Z,99275.66
2023-03-07T00:31:41.473Z,99153.22
2023-03-07T00:34:11.038Z,99314.75
2023-03-07T00:36:45.049Z,99164.66
2023-03-07T00:39:14.022Z,99253.41
2023-03-07T00:41:43.118Z,99224.06
2023-03-07T00:44:12.269Z,99213.97
2023-03-07T00:46:39.274Z,99216.34
2023-03-07T00:49:06.611Z,99272.44
2023-03-07T00:51:41.932Z,99194.94
2023-03-07T00:54:14.075Z,99263.91
2023-03-07T00:56:43.662Z,99292.69
2023-03-07T00:59:10.785Z,99258.75
2023-03-07T01:01:38.033Z,99288.56
2023-03-07T01:04:07.475Z,99292.81
2023-03-07T01:06:34.639Z,99302.84
2023-03-07T01:09:07.809Z,99285.84
2023-03-07T01:11:35.931Z,98720.41
2023-03-07T01:14:07.156Z,99251.53
2023-03-07T01:16:37.454Z,99218.81
2023-03-07T01:19:15.850Z,99205.63
2023-03-07T01:21:47.177Z,99190.28
2023-03-07T01:24:19.127Z,99151.56
2023-03-07T01:26:46.555Z,99268.91
2023-03-07T01:29:15.495Z,99202.09
2023-03-07T01:31:42.357Z,99200.41
2023-03-07T01:34:12.206Z,99244.13
2023-03-07T01:36:44.759Z,99120.00
2023-03-07T01:39:17.360Z,99281.56
2023-03-07T01:41:57.105Z,99284.34
2023-03-07T01:44:29.004Z,99163.09
2023-03-07T01:47:03.717Z,99284.25
2023-03-07T01:49:46.265Z,99134.38
2023-03-07T01:52:19.089Z,99270.59
2023-03-07T01:55:03.443Z,99223.72
2023-03-07T01:57:44.665Z,99239.31
2023-03-07T02:00:17.133Z,99270.13
2023-03-07T02:02:46.231Z,99232.56
2023-03-07T02:05:28.095Z,99140.59
2023-03-07T02:07:56.417Z,99042.97
2023-03-07T02:10:26.569Z,99206.03
2023-03-07T02:12:57.070Z,99262.09
2023-03-07T02:15:26.564Z,98980.31
2023-03-07T02:17:56.314Z,99064.75
2023-03-07T02:20:41.697Z,99242.97
2023-03-07T02:23:34.405Z,99137.56
2023-03-07T02:26:22.036Z,99246.56
2023-03-07T02:28:49.229Z,99034.69
2023-03-07T02:31:21.057Z,99202.88
2023-03-07T02:33:48.112Z,99249.97
2023-03-07T02:36:19.558Z,99245.56
2023-03-07T02:39:17.070Z,99085.66
2023-03-07T02:41:46.365Z,99196.28
2023-03-07T02:44:24.368Z,99232.88
2023-03-07T02:46:53.662Z,99206.81
2023-03-07T02:49:23.354Z,99256.34
2023-03-07T02:51:57.977Z,99271.81
2023-03-07T02:54:25.368Z,99212.41
2023-03-07T02:56:54.779Z,99255.25
2023-03-07T02:59:21.573Z,99072.44
2023-03-07T03:01:48.914Z,99224.50
2023-03-07T03:04:15.755Z,99261.47
2023-03-07T03:06:42.658Z,99089.75
2023-03-07T03:09:09.542Z,99124.75
2023-03-07T03:11:38.781Z,99257.25
2023-03-07T03:14:08.153Z,99204.44
2023-03-07T03:16:35.022Z,99195.41
2023-03-07T03:19:02.243Z,99221.69
2023-03-07T03:21:33.901Z,99060.72
2023-03-07T03:24:05.738Z,99254.84
2023-03-07T03:26:36.353Z,99265.06
2023-03-07T03:29:07.599Z,99255.56
2023-03-07T03:31:36.817Z,99259.78
2023-03-07T03:34:05.688Z,99202.88
2023-03-07T03:36:33.723Z,98993.03
2023-03-07T03:39:10.960Z,99247.28
2023-03-07T03:41:45.523Z,99151.91
2023-03-07T03:44:12.769Z,99256.44
2023-03-07T03:46:40.101Z,99144.41
2023-03-07T03:49:12.658Z,99151.50
2023-03-07T03:51:40.375Z,99055.28
2023-03-07T03:54:07.201Z,99163.13
2023-03-07T03:56:35.573Z,99208.47
2023-03-07T03:59:03.156Z,99159.16
2023-03-07T04:01:30.075Z,99053.03
2023-03-07T04:03:58.609Z,99162.31
2023-03-07T04:06:31.820Z,99222.44
2023-03-07T04:09:05.277Z,99071.97
2023-03-07T04:11:32.840Z,99247.03
2023-03-07T04:14:01.989Z,99184.09
2023-03-07T04:16:31.231Z,99126.47
2023-03-07T04:19:01.582Z,99253.25
2023-03-07T04:21:30.749Z,99156.03
2023-03-07T04:23:59.413Z,99130.81
2023-03-07T04:26:29.814Z,99148.34
2023-03-07T04:28:59.098Z,99224.16
2023-03-07T04:31:32.538Z,99155.31
2023-03-07T04:34:03.963Z,99172.66
2023-03-07T04:37:29.650Z,99174.28
2023-03-07T04:53:22.916Z,99265.19
2023-03-07T05:01:27.844Z,98504.75
2023-03-07T05:08:37.702Z,98461.91
2023-03-07T05:15:10.515Z,99264.84
2023-03-07T05:17:42.122Z,99025.00
2023-03-07T05:20:12.998Z,99267.63
2023-03-07T05:26:18.703Z,99258.91
2023-03-07T05:29:16.096Z,99272.47
2023-03-07T05:36:21.852Z,98521.78
2023-03-07T05:38:53.987Z,99283.97
2023-03-07T05:41:23.253Z,99164.97
2023-03-07T05:43:55.479Z,99288.56
2023-03-07T05:46:23.308Z,99135.22
2023-03-07T05:48:50.519Z,99257.28
2023-03-07T05:51:17.428Z,99157.59
2023-03-07T05:53:46.840Z,99280.63
2023-03-07T05:56:14.259Z,99120.06
2023-03-07T05:58:41.810Z,99250.88
2023-03-07T06:01:11.734Z,99279.22
2023-03-07T06:03:42.980Z,99258.06
2023-03-07T06:06:12.834Z,99257.66
2023-03-07T06:08:40.341Z,99201.63
2023-03-07T06:11:07.436Z,99265.69
2023-03-07T06:13:40.135Z,99291.38
2023-03-07T06:16:07.032Z,99268.72
2023-03-07T06:18:38.483Z,99242.88
2023-03-07T06:21:09.223Z,99305.75
2023-03-07T06:23:41.352Z,99238.22
2023-03-07T06:26:15.087Z,99226.34
2023-03-07T06:28:44.695Z,99242.03
2023-03-07T06:31:15.755Z,99216.88
2023-03-07T06:33:43.790Z,99106.69
2023-03-07T06:36:14.581Z,99311.72
2023-03-07T06:38:46.230Z,99234.88
2023-03-07T06:41:13.521Z,99193.25
2023-03-07T06:43:40.498Z,99237.19
2023-03-07T06:46:10.732Z,99197.06
2023-03-07T06:48:40.587Z,99233.03
2023-03-07T06:51:11.535Z,99289.41
2023-03-07T06:53:42.648Z,99283.69
2023-03-07T06:56:11.786Z,99165.16
2023-03-07T06:58:39.223Z,99222.94
2023-03-07T07:01:07.654Z,99223.38
2023-03-07T07:03:38.089Z,99157.91
2023-03-07T07:06:07.332Z,99179.03
2023-03-07T07:08:36.374Z,99313.34
2023-03-07T07:11:06.222Z,99193.84
2023-03-07T07:13:33.754Z,99249.84
2023-03-07T07:16:08.812Z,99312.88
2023-03-07T07:18:37.793Z,99318.97
2023-03-07T07:21:09.048Z,99252.47
2023-03-07T07:23:35.703Z,99319.53
2023-03-07T07:26:08.561Z,99236.78
2023-03-07T07:28:36.866Z,99081.53
2023-03-07T07:31:05.687Z,99241.25
2023-03-07T07:33:33.737Z,99172.31
2023-03-07T07:36:02.823Z,99256.31
2023-03-07T07:38:29.818Z,99220.13
2023-03-07T07:41:03.024Z,99265.41
2023-03-07T07:43:32.318Z,99267.66
2023-03-07T07:46:09.700Z,99183.41
2023-03-07T07:48:39.018Z,99209.28
2023-03-07T07:51:06.047Z,99325.97
2023-03-07T07:53:37.710Z,99195.72
2023-03-07T07:56:10.244Z,99257.19
2023-03-07T07:58:37.098Z,99229.66
2023-03-07T08:01:15.108Z,99324.38
2023-03-07T08:03:41.933Z,99303.53
2023-03-07T08:06:08.871Z,99168.72
2023-03-07T08:08:37.852Z,99255.25
2023-03-07T08:11:05.559Z,99251.22
2023-03-07T08:13:32.473Z,99254.81
2023-03-07T08:15:59.314Z,99190.59
2023-03-07T08:18:28.735Z,99320.41
2023-03-07T08:21:01.732Z,99223.38
2023-03-07T08:23:28.645Z,99254.03
2023-03-07T08:25:57.613Z,99322.41
2023-03-07T08:28:24.870Z,99242.88
2023-03-07T08:30:56.418Z,99206.78
2023-03-07T08:33:26.437Z,99177.56
2023-03-07T08:35:58.905Z,99253.63
2023-03-07T08:38:28.430Z,99199.72
2023-03-07T08:41:05.556Z,99229.81
2023-03-07T08:43:33.498Z,99328.91
2023-03-07T08:46:03.510Z,99330.34
2023-03-07T08:48:33.040Z,99198.00
2023-03-07T08:51:16.012Z,99244.69
2023-03-07T08:53:44.318Z,99331.16
2023-03-07T08:56:18.853Z,99274.94
2023-03-07T08:58:46.016Z,99164.97
2023-03-07T09:01:15.735Z,99293.38
2023-03-07T09:03:43.068Z,99285.66
2023-03-07T09:06:17.180Z,99183.41
2023-03-07T09:08:47.914Z,99155.22
2023-03-07T09:11:15.587Z,99213.03
2023-03-07T09:13:51.527Z,99339.22
2023-03-07T09:16:20.457Z,99269.22
2023-03-07T09:18:47.704Z,99281.84
2023-03-07T09:21:16.948Z,99299.19
2023-03-07T09:23:46.885Z,99217.19
2023-03-07T09:26:16.289Z,99238.88
2023-03-07T09:28:43.198Z,99249.38
2023-03-07T09:31:11.826Z,99203.75
2023-03-07T09:33:39.452Z,99329.63
2023-03-07T09:36:13.004Z,99322.41
2023-03-07T09:38:42.341Z,99304.53
2023-03-07T09:41:15.032Z,99332.50
2023-03-07T09:44:02.636Z,99174.69
2023-03-07T09:47:03.906Z,99335.06
2023-03-07T09:49:40.565Z,99327.31
2023-03-07T09:52:14.492Z,99276.47
2023-03-07T09:54:52.336Z,99273.69
2023-03-07T09:57:26.028Z,99212.00
2023-03-07T10:00:17.741Z,99327.56
2023-03-07T10:02:58.760Z,99288.25
2023-03-07T10:05:41.980Z,99322.41
2023-03-07T10:08:17.608Z,99179.72
2023-03-07T10:10:53.110Z,99299.41
2023-03-07T10:13:35.499Z,99234.81
2023-03-07T10:16:13.042Z,99279.44
2023-03-07T10:19:21.886Z,99287.28
2023-03-07T10:22:29.622Z,99252.25
2023-03-07T10:25:07.758Z,99320.44
2023-03-07T10:27:37.630Z,99207.03
2023-03-07T10:30:15.949Z,99291.16
2023-03-07T10:32:47.543Z,99334.75
2023-03-07T10:35:29.511Z,99332.88
2023-03-07T10:38:27.628Z,99215.25
2023-03-07T10:40:55.535Z,99328.34
2023-03-07T10:43:26.296Z,99323.84
2023-03-07T10:46:01.194Z,99189.38
2023-03-07T10:48:32.226Z,99323.41
2023-03-07T10:51:05.864Z,99306.19
2023-03-07T10:53:35.371Z,99243.28
2023-03-07T10:56:11.383Z,99272.41
2023-03-07T10:58:41.496Z,99156.22
2023-03-07T11:01:21.863Z,99195.69
2023-03-07T11:04:05.351Z,99288.19
2023-03-07T11:06:39.634Z,99254.94
2023-03-07T11:09:14.261Z,99209.34
2023-03-07T11:11:54.341Z,99168.22
2023-03-07T11:14:22.140Z,99178.53
2023-03-07T11:17:39.089Z,99278.59
2023-03-07T11:20:22.532Z,99115.22
2023-03-07T11:23:10.375Z,99260.34
2023-03-07T11:25:42.081Z,99082.44
2023-03-07T11:28:26.529Z,99251.16
2023-03-07T11:31:02.066Z,99123.09
2023-03-07T11:33:59.088Z,99148.06
2023-03-07T11:36:34.141Z,99134.06
2023-03-07T11:39:07.716Z,99097.19
2023-03-07T11:41:41.453Z,99128.00
2023-03-07T11:44:13.675Z,99208.47
2023-03-07T11:47:04.629Z,99184.34
2023-03-07T11:49:52.054Z,99208.91
2023-03-07T11:52:48.845Z,99213.78
2023-03-07T11:55:18.122Z,99154.09
2023-03-07T11:57:54.362Z,99205.59
2023-03-07T12:00:45.856Z,99212.88
2023-03-07T12:03:40.002Z,99200.34
2023-03-07T12:06:15.256Z,99225.19
2023-03-07T12:08:46.135Z,99166.00
2023-03-07T12:11:28.072Z,99211.19
2023-03-07T12:14:14.219Z,99057.63
2023-03-07T12:16:58.989Z,99212.16
2023-03-07T12:19:47.098Z,99207.97
2023-03-07T12:22:29.226Z,99195.59
2023-03-07T12:25:01.123Z,99209.22
2023-03-07T12:27:33.487Z,99121.63
2023-03-07T12:30:06.987Z,99205.94
2023-03-07T12:32:35.421Z,99129.41
2023-03-07T12:35:09.902Z,99206.00
2023-03-07T12:37:47.611Z,99146.69
2023-03-07T12:40:21.474Z,99074.69
2023-03-07T12:43:01.317Z,99190.84
2023-03-07T12:45:38.968Z,99194.66
2023-03-07T12:48:19.471Z,99190.94
2023-03-07T12:51:07.119Z,99191.19
2023-03-07T12:53:59.800Z,99122.41
2023-03-07T12:56:40.951Z,99188.63
2023-03-07T12:59:15.557Z,99062.09
2023-03-07T13:01:49.212Z,99075.28
2023-03-07T13:04:42.784Z,99192.63
2023-03-07T13:07:15.623Z,99185.09
2023-03-07T13:09:46.841Z,99109.78
2023-03-07T13:12:16.969Z,99171.81
2023-03-07T13:14:52.162Z,99137.44
2023-03-07T13:17:31.316Z,99193.00
2023-03-07T13:20:02.212Z,99203.63
2023-03-07T13:22:31.383Z,99201.03
2023-03-07T13:25:03.221Z,99104.97
2023-03-07T13:27:42.240Z,99204.75
2023-03-07T13:30:12.341Z,99210.72
2023-03-07T13:32:56.507Z,99210.34
2023-03-07T13:35:32.661Z,99212.00
2023-03-07T13:38:04.509Z,99211.84
2023-03-07T13:40:37.545Z,99198.03
2023-03-07T13:43:26.327Z,99056.84
2023-03-07T13:45:56.734Z,99208.72
2023-03-07T13:48:33.022Z,99200.34
2023-03-07T13:51:07.471Z,99202.78
2023-03-07T13:53:43.051Z,99194.88
2023-03-07T13:56:15.953Z,99192.78
2023-03-07T13:59:04.385Z,99188.56
2023-03-07T14:01:59.314Z,99169.81
2023-03-07T14:04:45.844Z,99175.16
2023-03-07T14:07:21.918Z,99150.13
2023-03-07T14:09:56.000Z,99010.50
2023-03-07T14:12:41.155Z,99164.72
2023-03-07T14:15:38.366Z,99051.13
2023-03-07T14:18:26.365Z,99147.72
2023-03-07T14:21:11.866Z,99142.78
2023-03-07T14:24:01.352Z,99131.13
2023-03-07T14:26:36.965Z,99141.56
2023-03-07T14:29:12.133Z,99039.94
2023-03-07T14:31:41.346Z,99152.88
2023-03-07T14:34:30.701Z,99138.06
2023-03-07T14:37:06.218Z,99135.50
2023-03-07T14:40:22.507Z,98978.53
2023-03-07T14:42:55.377Z,99144.69
2023-03-07T14:45:27.186Z,99046.44
2023-03-07T14:48:19.016Z,98995.06
2023-03-07T14:50:45.948Z,98955.97
2023-03-07T14:53:27.180Z,98938.72
2023-03-07T14:55:55.638Z,98832.41
2023-03-07T14:58:25.490Z,99011.28
2023-03-07T15:01:12.432Z,99095.50
2023-03-07T15:03:49.920Z,98893.19
2023-03-07T15:06:23.733Z,99042.13
2023-03-07T15:08:52.289Z,99099.34
2023-03-07T15:11:30.711Z,99138.56
2023-03-07T15:14:04.734Z,99045.66
2023-03-07T15:16:38.302Z,99150.75
2023-03-07T15:19:15.503Z,99156.50
2023-03-07T15:21:50.564Z,99138.25
2023-03-07T15:24:19.841Z,98989.25
2023-03-07T15:26:50.916Z,99138.25
2023-03-07T15:29:20.770Z,99031.34
2023-03-07T15:31:54.799Z,99132.47
2023-03-07T15:34:25.849Z,99067.44
2023-03-07T15:36:54.819Z,98995.50
2023-03-07T15:39:37.255Z,98760.28
2023-03-07T15:42:08.134Z,98966.56
2023-03-07T15:44:36.445Z,99001.00
2023-03-07T15:47:12.778Z,99067.75
2023-03-07T15:49:49.227Z,98948.41
2023-03-07T15:52:27.431Z,99103.09
2023-03-07T15:54:56.051Z,98992.16
2023-03-07T15:57:43.030Z,98768.22
2023-03-07T16:00:34.166Z,99098.94
2023-03-07T16:03:23.272Z,99088.38
2023-03-07T16:05:50.278Z,98918.75
2023-03-07T16:08:21.129Z,99076.53
2023-03-07T16:10:51.349Z,99072.91
2023-03-07T16:13:21.370Z,99031.22
2023-03-07T16:16:07.092Z,98677.03
2023-03-07T16:18:34.251Z,98916.28
2023-03-07T16:21:01.382Z,98969.75
2023-03-07T16:23:31.156Z,99097.06
2023-03-07T16:25:59.171Z,99078.97
2023-03-07T16:28:28.524Z,98761.03
2023-03-07T16:30:55.323Z,99068.84
2023-03-07T16:33:22.098Z,98903.00
2023-03-07T16:35:51.394Z,99034.69
2023-03-07T16:38:18.249Z,99051.22
2023-03-07T16:40:45.361Z,98912.00
2023-03-07T16:43:27.314Z,99061.91
2023-03-07T16:45:55.538Z,98992.78
2023-03-07T16:48:22.488Z,98944.81
2023-03-07T16:50:51.612Z,99057.16
2023-03-07T16:53:18.870Z,98909.91
2023-03-07T16:55:48.226Z,98823.75
2023-03-07T16:58:25.512Z,98987.66
2023-03-07T17:00:55.874Z,98789.59
2023-03-07T17:03:23.546Z,99043.75
2023-03-07T17:05:52.698Z,98947.63
2023-03-07T17:08:24.305Z,98878.78
2023-03-07T17:10:51.079Z,98932.78
2023-03-07T17:13:18.380Z,98767.91
2023-03-07T17:15:48.263Z,99054.97
2023-03-07T17:18:17.702Z,98681.75
2023-03-07T17:20:44.413Z,99036.19
2023-03-07T17:23:11.124Z,98938.72
2023-03-07T17:25:40.139Z,98886.00
2023-03-07T17:28:15.163Z,98968.66
2023-03-07T17:30:45.072Z,98989.81
2023-03-07T17:33:12.296Z,99006.00
2023-03-07T17:35:42.105Z,99042.66
2023-03-07T17:38:09.144Z,98773.66
2023-03-07T17:40:38.800Z,99056.06
2023-03-07T17:43:08.084Z,98957.47
2023-03-07T17:45:37.110Z,98989.75
2023-03-07T17:48:03.995Z,98718.84
2023-03-07T17:50:30.798Z,98890.94
2023-03-07T17:53:03.360Z,99002.75
2023-03-07T17:55:30.423Z,98888.06
2023-03-07T17:57:59.505Z,98892.53
2023-03-07T18:00:26.608Z,99047.81
2023-03-07T18:02:53.442Z,98891.50
2023-03-07T18:05:20.298Z,98896.81
2023-03-07T18:07:47.231Z,98974.47
2023-03-07T18:10:16.276Z,98853.13
2023-03-07T18:12:46.111Z,98692.34
2023-03-07T18:15:15.493Z,98940.16
2023-03-07T18:17:48.913Z,99027.88
2023-03-07T18:20:20.418Z,98903.88
2023-03-07T18:22:47.771Z,99024.78
2023-03-07T18:25:16.232Z,99030.28
2023-03-07T18:27:43.789Z,98860.28
2023-03-07T18:30:11.998Z,98958.88
2023-03-07T18:32:41.095Z,99067.41
2023-03-07T18:35:08.192Z,99020.19
2023-03-07T18:37:35.062Z,98823.19
2023-03-07T18:40:05.126Z,98956.38
2023-03-07T18:42:32.652Z,98997.97
2023-03-07T18:44:59.531Z,98741.44
2023-03-07T18:47:28.730Z,98967.28
2023-03-07T18:49:57.691Z,98932.16
2023-03-07T18:52:24.590Z,98883.06
2023-03-07T18:54:53.584Z,98949.00
2023-03-07T18:57:22.724Z,98849.16
2023-03-07T18:59:50.217Z,98985.50
2023-03-07T19:02:19.527Z,98914.97
2023-03-07T19:04:51.286Z,98969.34
2023-03-07T19:07:20.224Z,98759.88
2023-03-07T19:09:53.236Z,98815.53
2023-03-07T19:12:22.691Z,98751.97
2023-03-07T19:14:54.174Z,99003.16
2023-03-07T19:17:25.713Z,98850.38
2023-03-07T19:19:59.359Z,98992.75
2023-03-07T19:22:29.667Z,98861.31
2023-03-07T19:24:59.594Z,98984.53
2023-03-07T19:27:32.163Z,98818.81
2023-03-07T19:30:01.349Z,98990.75
2023-03-07T19:32:33.383Z,98988.06
2023-03-07T19:35:02.889Z,98930.59
2023-03-07T19:37:29.663Z,98989.03
2023-03-07T19:39:58.623Z,98914.03
2023-03-07T19:42:25.422Z,98992.56
2023-03-07T19:44:54.180Z,98894.16
2023-03-07T19:47:21.099Z,98905.19
2023-03-07T19:49:50.145Z,98845.94
2023-03-07T19:52:17.784Z,98823.81
2023-03-07T19:54:45.578Z,98742.91
2023-03-07T19:57:15.223Z,98700.31
2023-03-07T19:59:44.580Z,98895.25
2023-03-07T20:02:13.120Z,98943.81
2023-03-07T20:04:40.372Z,98808.13
2023-03-07T20:07:07.276Z,98780.16
2023-03-07T20:09:34.410Z,98814.22
2023-03-07T20:12:01.149Z,98852.09
2023-03-07T20:14:27.990Z,98778.44
2023-03-07T20:16:57.012Z,98955.09
2023-03-07T20:19:25.145Z,98733.72
2023-03-07T20:21:51.941Z,98984.47
2023-03-07T20:24:18.861Z,98885.56
2023-03-07T20:26:49.101Z,98984.09
2023-03-07T20:29:15.972Z,98706.84
2023-03-07T20:31:45.162Z,98981.28
2023-03-07T20:34:11.956Z,98941.38
2023-03-07T20:36:38.792Z,98994.66
2023-03-07T20:39:08.305Z,98982.13
2023-03-07T20:41:37.405Z,98723.63
2023-03-07T20:44:06.457Z,98971.41
2023-03-07T20:46:34.427Z,98977.59
2023-03-07T20:49:04.420Z,98787.28
2023-03-07T20:51:34.023Z,98983.50
2023-03-07T20:54:14.399Z,98877.34
2023-03-07T20:56:48.033Z,98870.91
2023-03-07T20:59:18.839Z,98922.63
2023-03-07T21:01:48.831Z,98849.56
2023-03-07T21:04:20.599Z,98875.03
2023-03-07T21:06:48.262Z,98968.59
2023-03-07T21:09:16.544Z,98955.75
2023-03-07T21:11:49.126Z,98739.00
2023-03-07T21:14:17.332Z,98686.72
2023-03-07T21:16:46.543Z,98807.50
2023-03-07T21:19:16.243Z,98860.56
2023-03-07T21:21:44.526Z,98959.00
2023-03-07T21:24:15.657Z,98917.88
2023-03-07T21:26:45.852Z,98871.69
2023-03-07T21:29:14.011Z,98795.97
2023-03-07T21:31:43.123Z,98987.56
2023-03-07T21:34:13.595Z,98755.41
2023-03-07T21:36:40.518Z,98922.56
2023-03-07T21:39:09.820Z,98871.22
2023-03-07T21:41:36.663Z,98776.25
2023-03-07T21:44:03.411Z,98897.44
2023-03-07T21:46:30.262Z,98830.59
2023-03-07T21:48:59.592Z,98893.97
2023-03-07T21:51:31.689Z,98932.28
2023-03-07T21:54:03.484Z,98887.91
2023-03-07T21:56:35.805Z,98840.94
2023-03-07T21:59:02.812Z,98882.13
2023-03-07T22:01:34.647Z,98849.00
2023-03-07T22:04:01.476Z,98781.31
2023-03-07T22:06:28.542Z,98942.34
2023-03-07T22:08:58.442Z,98806.56
2023-03-07T22:11:27.751Z,98942.41
2023-03-07T22:13:59.508Z,98861.50
2023-03-07T22:16:28.678Z,98853.31
2023-03-07T22:19:00.153Z,98841.03
2023-03-07T22:21:29.701Z,98787.75
2023-03-07T22:24:00.864Z,98819.56
2023-03-07T22:26:30.983Z,98768.44
2023-03-07T22:28:58.102Z,98825.50
2023-03-07T22:31:25.649Z,98886.03
2023-03-07T22:33:55.258Z,98835.63
2023-03-07T22:36:27.067Z,98805.00
2023-03-07T22:38:55.455Z,98774.16
2023-03-07T22:41:23.453Z,98824.94
2023-03-07T22:43:52.637Z,98754.94
2023-03-07T22:46:19.544Z,98926.06
2023-03-07T22:48:54.005Z,98790.53
2023-03-07T22:51:24.891Z,98823.41
2023-03-07T22:53:54.277Z,98883.50
2023-03-07T22:56:23.528Z,98908.78
2023-03-07T22:58:53.743Z,98875.59
2023-03-07T23:01:26.006Z,98815.94
2023-03-07T23:03:56.236Z,98912.28
2023-03-07T23:06:24.598Z,98770.19
2023-03-07T23:08:54.273Z,98786.63
2023-03-07T23:11:25.846Z,98901.56
2023-03-07T23:13:56.366Z,98725.28
2023-03-07T23:16:28.372Z,98840.19
2023-03-07T23:18:58.883Z,98908.19
2023-03-07T23:21:31.469Z,98800.03
2023-03-07T23:24:06.206Z,98900.44
2023-03-07T23:26:36.940Z,98898.59
2023-03-07T23:29:05.771Z,98888.03
2023-03-07T23:31:35.709Z,98880.88
2023-03-07T23:34:05.643Z,98905.25
2023-03-07T23:36:35.558Z,98910.56
2023-03-07T23:39:04.656Z,98910.53
2023-03-07T23:41:34.486Z,98865.75
2023-03-07T23:44:04.084Z,98809.13
2023-03-07T23:46:33.653Z,98770.38
2023-03-07T23:49:01.194Z,98923.25
2023-03-07T23:51:28.020Z,98825.53
2023-03-07T23:53:54.903Z,98802.75
2023-03-07T23:56:21.852Z,98911.91
2023-03-07T23:58:56.584Z,98910.28
